Portada
METAR-TAF:

METAR-TAF

Aeropuertos :

Independence Municipal Airport

Independence, Iowa, Estados Unidos

latitud: 42-27N, longitud: 091-56W, altitud: 298 m

Observación

El informe se hizo hace 32 minutos, a las 07:35 UTC
Viento calma
Temperatura 9°C
Humedad 81%
Presión 1025 hPa
Visibilidad: 16.1 km
Cielo despejado

METAR: KIIB 310735Z AUTO 00000KT 10SM CLR 09/06 A3028 RMK AO2 T00930064

Hora: 03:07 (08:07 UTC)


TAF: falta

Observaciones y pronósticos meteorológicos de más de 4000 aeropuertos (mensajes METAR y TAF).

Los puntos amarillos y rojos representan las estaciones disponibles.

Ponga el ratón en el punto deseado para ver el nombre de la estación.

Haga clic para ver las observaciones y los pronósticos meteorológicos.

Para cambiar el mapa : haga clic en los botones verdes con una cruz de color negro para hacer un zoom, en el botón verde con un guión para alejar o en las flechas verdes para mapas adyacentes.


METAR-TAF: